This is the latest recevied weather packets stored in our database for station/object KD7AWQ. If no packets are shown the sender has not sent any weather packets the latest 10 day(s).
| Time | Temp. | Humidity | Pressure | Rain* | Wind** | Luminosity | Snow |
|---|---|---|---|---|---|---|---|
| 1777958384 | 13.89° C | 74% | 1183.3 hPa | 0 mm | - | 0 W/m² | - |
| 1777958081 | 13.89° C | 75% | 1183.1 hPa | 0 mm | - | 0 W/m² | - |
| 1777957779 | 13.89° C | 75% | 1183 hPa | 0 mm | - | 0 W/m² | - |
| 1777957477 | 13.89° C | 75% | 1183 hPa | 0 mm | - | 0 W/m² | - |
| 1777957174 | 13.89° C | 76% | 1183.2 hPa | 0 mm | - | 0 W/m² | - |
| 1777956871 | 13.89° C | 74% | 1183.3 hPa | 0 mm | - | 0 W/m² | - |
| 1777956568 | 13.89° C | 74% | 1183.6 hPa | 0 mm | - | 0 W/m² | - |
| 1777956265 | 13.89° C | 73% | 1183.7 hPa | 0 mm | - | 0 W/m² | - |
| 1777955961 | 13.89° C | 71% | 1183.3 hPa | 0 mm | - | 0 W/m² | - |
| 1777955657 | 13.89° C | 72% | 1183.7 hPa | 0 mm | - | 0 W/m² | - |
| 1777955354 | 13.89° C | 72% | 1183.9 hPa | 0 mm | - | 0 W/m² | - |
| 1777955050 | 13.89° C | 72% | 1183.8 hPa | 0 mm | - | 0 W/m² | - |
| 1777954748 | 13.89° C | 74% | 1183.6 hPa | 0 mm | - | 0 W/m² | - |
| 1777954445 | 13.89° C | 74% | 1183.6 hPa | 0 mm | - | 0 W/m² | - |
| 1777954142 | 13.89° C | 74% | 1183.7 hPa | 0 mm | - | 0 W/m² | - |
| 1777953839 | 13.89° C | 75% | 1183.9 hPa | 0 mm | - | 0 W/m² | - |
| 1777953536 | 13.33° C | 75% | 1183.9 hPa | 0 mm | - | 0 W/m² | - |
| 1777942926 | 16.67° C | 41% | 1182.9 hPa | 0 mm | - | 106 W/m² | - |
| 1777941713 | 17.22° C | 37% | 1183.1 hPa | 0 mm | - | 158 W/m² | - |
| 1777940803 | 17.78° C | 34% | 1183.1 hPa | 0 mm | - | 112 W/m² | - |
| 1777940502 | 18.33° C | 34% | 1182.9 hPa | 0 mm | - | 125 W/m² | - |
| 1777938684 | 19.44° C | 28% | 1183 hPa | 0 mm | - | 174 W/m² | - |
| 1777933833 | 22.22° C | 22% | 1182.8 hPa | 0 mm | - | 375 W/m² | - |
| 1777928679 | 23.89° C | 19% | 1182.4 hPa | 0 mm | - | 545 W/m² | - |
| 1777928376 | 23.33° C | 20% | 1182.4 hPa | 0 mm | - | 691 W/m² | - |
* Rain latest hour (hover to see other rain measurements)
** Current wind speed in m/s (hover to see current wind gust speed)